createdAt,value
2022-12-03T00:00:39.312Z,102046.73
2022-12-03T00:01:43.572Z,102049.92
2022-12-03T00:02:48.063Z,102046.87
2022-12-03T00:03:52.749Z,102045.65
2022-12-03T00:04:57.328Z,102050.48
2022-12-03T00:06:01.557Z,102044.81
2022-12-03T00:07:05.819Z,102048.33
2022-12-03T00:08:10.247Z,102050.9
2022-12-03T00:09:14.698Z,102046.01
2022-12-03T00:10:18.977Z,102045.79
2022-12-03T00:11:23.223Z,102045.28
2022-12-03T00:12:30.052Z,102045.42
2022-12-03T00:13:34.270Z,102043.95
2022-12-03T00:14:45.197Z,102052.91
2022-12-03T00:15:49.583Z,102049.3
2022-12-03T00:16:53.869Z,102043.47
2022-12-03T00:17:58.113Z,102042.24
2022-12-03T00:19:02.343Z,102044.92
2022-12-03T00:20:06.641Z,102045.38
2022-12-03T00:21:10.893Z,102041.83
2022-12-03T00:22:15.113Z,102043.36
2022-12-03T00:23:19.348Z,102048.16
2022-12-03T00:24:23.552Z,102044.23
2022-12-03T00:25:27.849Z,102040.32
2022-12-03T00:26:32.115Z,102047.8
2022-12-03T00:27:36.313Z,102040.32
2022-12-03T00:28:40.559Z,102040.27
2022-12-03T00:29:44.796Z,102041.97
2022-12-03T00:30:49.190Z,102039.84
2022-12-03T00:31:53.510Z,102044.64
2022-12-03T00:32:57.738Z,102041.09
2022-12-03T00:34:01.951Z,102041.6
2022-12-03T00:35:06.152Z,102044.76
2022-12-03T00:36:10.417Z,102044.84
2022-12-03T00:37:14.692Z,102041.8
2022-12-03T00:38:18.914Z,102041.35
2022-12-03T00:39:23.129Z,102041.91
2022-12-03T00:40:27.365Z,102043.67
2022-12-03T00:41:31.630Z,102042.47
2022-12-03T00:42:35.907Z,102038.45
2022-12-03T00:43:40.129Z,102037.47
2022-12-03T00:44:44.480Z,102038.81
2022-12-03T00:45:48.672Z,102034.43
2022-12-03T00:46:53.153Z,102038.09
2022-12-03T00:47:57.537Z,102032.95
2022-12-03T00:49:01.754Z,102030.83
2022-12-03T00:50:05.968Z,102036.13
2022-12-03T00:51:10.213Z,102035.62
2022-12-03T00:52:14.462Z,102032.06
2022-12-03T00:53:18.715Z,102031.61
2022-12-03T00:54:31.997Z,102033.92
2022-12-03T00:55:36.533Z,102032.31
2022-12-03T00:56:40.743Z,102028.2
2022-12-03T00:57:44.969Z,102036.94
2022-12-03T00:58:49.187Z,102035.05
2022-12-03T00:59:53.397Z,102028.95
2022-12-03T01:00:57.610Z,102028.23
2022-12-03T01:02:01.925Z,102036.58
2022-12-03T01:03:06.349Z,102037.92
2022-12-03T01:04:10.675Z,102030.3
2022-12-03T01:05:15.219Z,102034.17
2022-12-03T01:06:19.626Z,102042.36
2022-12-03T01:07:23.856Z,102043.34
2022-12-03T01:08:28.161Z,102038.45
2022-12-03T01:09:32.392Z,102036.08
2022-12-03T01:10:36.626Z,102044.63
2022-12-03T01:11:40.883Z,102036.58
2022-12-03T01:12:45.128Z,102040.3
2022-12-03T01:13:49.338Z,102034.2
2022-12-03T01:14:54.186Z,102040.71
2022-12-03T01:15:59.023Z,102034.02
2022-12-03T01:17:03.409Z,102035.85
2022-12-03T01:18:07.651Z,102036.74
2022-12-03T01:19:11.864Z,102031.53
2022-12-03T01:20:16.379Z,102031.22
2022-12-03T01:21:20.628Z,102036.1
2022-12-03T01:22:24.856Z,102039.56
2022-12-03T01:23:29.097Z,102035.3
2022-12-03T01:24:33.378Z,102026.64
2022-12-03T01:25:40.731Z,102034.82
2022-12-03T01:26:44.963Z,102039.34
2022-12-03T01:27:49.225Z,102039.76
2022-12-03T01:28:53.482Z,102036.22
2022-12-03T01:29:57.768Z,102036.3
2022-12-03T01:31:02.133Z,102033.67
2022-12-03T01:32:06.594Z,102037.45
2022-12-03T01:33:10.803Z,102039.39
2022-12-03T01:34:15.019Z,102038.06
2022-12-03T01:35:19.292Z,102036.91
2022-12-03T01:36:23.522Z,102033.31
2022-12-03T01:37:27.759Z,102038.31
2022-12-03T01:38:31.993Z,102030.33
2022-12-03T01:39:36.213Z,102040.63
2022-12-03T01:40:40.464Z,102034.45
2022-12-03T01:41:44.716Z,102037.44
2022-12-03T01:42:48.921Z,102037.58
2022-12-03T01:43:53.134Z,102035.06
2022-12-03T01:44:57.365Z,102034.98
2022-12-03T01:46:01.574Z,102037.66
2022-12-03T01:47:05.997Z,102041.26
2022-12-03T01:48:10.390Z,102036.82
2022-12-03T01:49:14.624Z,102037.53
2022-12-03T01:50:18.835Z,102034
2022-12-03T01:51:23.055Z,102038.52
2022-12-03T01:52:27.286Z,102035.9
2022-12-03T01:53:31.511Z,102030.48
2022-12-03T01:54:35.762Z,102032.8
2022-12-03T01:55:40.018Z,102022.09
2022-12-03T01:56:44.233Z,102024.77
2022-12-03T01:57:48.456Z,102028.37
2022-12-03T01:58:52.664Z,102020.24
2022-12-03T01:59:56.929Z,102017.09
2022-12-03T02:01:01.178Z,102017.81
2022-12-03T02:02:05.554Z,102018.42
2022-12-03T02:03:09.951Z,102013.43
2022-12-03T02:04:14.344Z,102010.28
2022-12-03T02:05:18.768Z,102015.75
2022-12-03T02:06:22.967Z,102012.28
2022-12-03T02:07:27.391Z,102008.44
2022-12-03T02:08:31.863Z,102014.35
2022-12-03T02:09:36.110Z,102006.73
2022-12-03T02:10:40.328Z,102004.61
2022-12-03T02:11:44.541Z,102004.66
2022-12-03T02:12:48.765Z,102005.31
2022-12-03T02:13:52.992Z,102009.97
2022-12-03T02:14:57.427Z,102006.45
2022-12-03T02:16:02.796Z,102000.65
2022-12-03T02:17:07.180Z,102006.98
2022-12-03T02:18:11.438Z,102004.44
2022-12-03T02:19:15.695Z,102005.31
2022-12-03T02:20:19.895Z,102002.8
2022-12-03T02:21:24.085Z,102000.12
2022-12-03T02:22:28.299Z,101999.95
2022-12-03T02:23:32.552Z,102001.77
2022-12-03T02:24:36.787Z,101996.97
2022-12-03T02:25:41.003Z,102002.18
2022-12-03T02:26:45.210Z,102000.12
2022-12-03T02:27:49.430Z,102004.5
2022-12-03T02:28:53.687Z,102003.16
2022-12-03T02:29:57.901Z,102000.98
2022-12-03T02:31:02.287Z,102000.63
2022-12-03T02:32:06.576Z,102005.98
2022-12-03T02:33:10.804Z,102003.77
2022-12-03T02:34:15.035Z,102007.79
2022-12-03T02:35:19.240Z,102002.02
2022-12-03T02:36:23.484Z,102005.72
2022-12-03T02:37:27.723Z,102007.26
2022-12-03T02:38:31.929Z,102008.95
2022-12-03T02:39:36.138Z,102001.79
2022-12-03T02:40:40.358Z,102008.85
2022-12-03T02:41:44.624Z,102007.2
2022-12-03T02:42:48.826Z,102005.81
2022-12-03T02:43:53.093Z,102002.16
2022-12-03T02:45:05.254Z,102011.45
2022-12-03T02:46:09.682Z,101998.05
2022-12-03T02:47:14.080Z,102006.64
2022-12-03T02:48:18.318Z,102000.88
2022-12-03T02:49:22.562Z,102003.19
2022-12-03T02:50:26.811Z,102008.18
2022-12-03T02:51:31.047Z,102005.3
2022-12-03T02:52:35.340Z,102009.88
2022-12-03T02:53:39.564Z,102001.23
2022-12-03T02:54:43.801Z,102007.2
2022-12-03T02:55:48.015Z,102005.97
2022-12-03T02:56:52.230Z,102009.52
2022-12-03T02:57:56.477Z,102003.8
2022-12-03T02:59:00.702Z,102008.23
2022-12-03T03:00:04.930Z,102007.03
2022-12-03T03:01:09.374Z,102011.69
2022-12-03T03:02:14.042Z,102010.97
2022-12-03T03:03:18.443Z,102013.59
2022-12-03T03:04:22.726Z,102008.28
2022-12-03T03:05:26.978Z,102012.81
2022-12-03T03:06:31.216Z,102011.41
2022-12-03T03:07:35.497Z,102008.28
2022-12-03T03:08:39.895Z,102008.79
2022-12-03T03:09:44.157Z,102009.52
2022-12-03T03:10:48.381Z,102006.28
2022-12-03T03:11:52.814Z,102008.66
2022-12-03T03:12:57.038Z,102018.39
2022-12-03T03:14:01.275Z,102009.02
2022-12-03T03:15:05.506Z,102013.17
2022-12-03T03:16:09.954Z,102017.66
2022-12-03T03:17:14.281Z,102007.03
2022-12-03T03:18:18.533Z,102009.34
2022-12-03T03:19:22.773Z,102010.74
2022-12-03T03:20:27.009Z,102006.41
2022-12-03T03:21:31.225Z,102008.38
2022-12-03T03:22:35.457Z,102006.95
2022-12-03T03:23:39.678Z,102008.01
2022-12-03T03:24:43.895Z,102004.88
2022-12-03T03:25:48.101Z,102000.5
2022-12-03T03:26:52.366Z,102005.86
2022-12-03T03:27:56.591Z,102000.22
2022-12-03T03:29:00.810Z,101998.38
2022-12-03T03:30:05.049Z,102003.37
2022-12-03T03:31:09.331Z,102004.23
2022-12-03T03:32:13.837Z,101999.36
2022-12-03T03:33:18.088Z,101995.75
2022-12-03T03:34:22.338Z,102003.09
2022-12-03T03:35:26.548Z,101996.73
2022-12-03T03:36:30.756Z,101995.84
2022-12-03T03:37:35.001Z,101995.53
2022-12-03T03:38:39.211Z,101986.21
2022-12-03T03:39:43.450Z,101989.25
2022-12-03T03:40:47.691Z,101992.44
2022-12-03T03:41:51.923Z,101995.67
2022-12-03T03:42:56.162Z,101991.16
2022-12-03T03:44:00.446Z,101994.8
2022-12-03T03:45:04.708Z,101996.64
2022-12-03T03:46:09.142Z,101989.81
2022-12-03T03:47:13.544Z,101999.19
2022-12-03T03:48:17.776Z,101996.64
2022-12-03T03:49:21.997Z,101992.63
2022-12-03T03:50:26.307Z,101992.32
2022-12-03T03:51:30.585Z,101993.71
2022-12-03T03:52:34.819Z,101991.23
2022-12-03T03:53:39.082Z,101989.64
2022-12-03T03:54:43.338Z,101990.17
2022-12-03T03:55:47.574Z,101987.64
2022-12-03T03:56:51.824Z,101985.38
2022-12-03T03:57:56.021Z,101979.77
2022-12-03T03:59:00.235Z,101982.02
2022-12-03T04:00:04.682Z,101983.48
2022-12-03T04:01:09.093Z,101989.45
2022-12-03T04:02:13.426Z,101984.28
2022-12-03T04:03:19.908Z,101983.98
2022-12-03T04:04:24.416Z,101983.19
2022-12-03T04:05:28.889Z,101990.72
2022-12-03T04:06:33.128Z,101988.19
2022-12-03T04:07:37.522Z,101978.31
2022-12-03T04:08:41.897Z,101980.16
2022-12-03T04:09:46.116Z,101978.25
2022-12-03T04:10:50.385Z,101978.39
2022-12-03T04:11:54.618Z,101984.11
2022-12-03T04:12:58.856Z,101972.06
2022-12-03T04:14:03.077Z,101979.18
2022-12-03T04:15:07.339Z,101977.89
2022-12-03T04:16:11.792Z,101980.52
2022-12-03T04:17:16.160Z,101980.02
2022-12-03T04:18:20.395Z,101973.45
2022-12-03T04:19:25.454Z,101980.57
2022-12-03T04:20:29.669Z,101980.16
2022-12-03T04:21:33.910Z,101980.16
2022-12-03T04:22:38.175Z,101981.8
2022-12-03T04:23:42.590Z,101975.87
2022-12-03T04:24:46.806Z,101982.66
2022-12-03T04:25:51.086Z,101981.73
2022-12-03T04:26:55.305Z,101979.11
2022-12-03T04:27:59.514Z,101982.94
2022-12-03T04:29:03.741Z,101978.5
2022-12-03T04:30:07.962Z,101976.13
2022-12-03T04:31:12.436Z,101974.8
2022-12-03T04:32:16.742Z,101974.38
2022-12-03T04:33:20.964Z,101974.38
2022-12-03T04:34:25.239Z,101971.45
2022-12-03T04:35:29.606Z,101967.93
2022-12-03T04:36:34.031Z,101971.34
2022-12-03T04:37:38.312Z,101970.47
2022-12-03T04:38:44.802Z,101975.77
2022-12-03T04:39:49.134Z,101973.34
2022-12-03T04:40:53.349Z,101971.22
2022-12-03T04:41:57.572Z,101978.72
2022-12-03T04:43:01.825Z,101968.55
2022-12-03T04:44:06.066Z,101972.75
2022-12-03T04:45:10.303Z,101969.52
2022-12-03T04:46:14.612Z,101972.67
2022-12-03T04:47:18.965Z,101969.57
2022-12-03T04:48:23.189Z,101972
2022-12-03T04:49:27.408Z,101971.45
2022-12-03T04:50:31.705Z,101963.97
2022-12-03T04:51:35.937Z,101972
2022-12-03T04:52:40.162Z,101971.86
2022-12-03T04:53:47.389Z,101970.24
2022-12-03T04:54:51.777Z,101966.14
2022-12-03T04:55:56.664Z,101971.5
2022-12-03T04:57:00.894Z,101962.22
2022-12-03T04:58:05.130Z,101966.65
2022-12-03T04:59:16.868Z,101966.03
2022-12-03T05:00:21.226Z,101969.69
2022-12-03T05:01:25.883Z,101971.14
2022-12-03T05:02:30.462Z,101968.34
2022-12-03T05:03:34.785Z,101970.24
2022-12-03T05:04:39.004Z,101969.8
2022-12-03T05:05:43.246Z,101964.53
2022-12-03T05:06:47.475Z,101961.09
2022-12-03T05:07:52.053Z,101965.48
2022-12-03T05:08:56.449Z,101966.75
2022-12-03T05:10:00.700Z,101967.86
2022-12-03T05:11:04.942Z,101962.73
2022-12-03T05:12:09.158Z,101958.34
2022-12-03T05:13:13.356Z,101956.66
2022-12-03T05:14:17.603Z,101961.36
2022-12-03T05:15:21.846Z,101952.55
2022-12-03T05:16:26.223Z,101950.64
2022-12-03T05:17:30.575Z,101951.98
2022-12-03T05:18:34.851Z,101947.8
2022-12-03T05:19:40.100Z,101951.75
2022-12-03T05:20:54.209Z,101956.2
2022-12-03T05:21:58.444Z,101952.27
2022-12-03T05:23:02.673Z,101944.83
2022-12-03T05:24:06.942Z,101941.52
2022-12-03T05:25:11.188Z,101951.09
2022-12-03T05:26:15.391Z,101943.45
2022-12-03T05:27:24.623Z,101940.44
2022-12-03T05:28:28.871Z,101939.45
2022-12-03T05:29:33.101Z,101932.89
2022-12-03T05:30:37.482Z,101935.66
2022-12-03T05:31:41.773Z,101936.8
2022-12-03T05:32:46.011Z,101931.61
2022-12-03T05:33:50.262Z,101934.85
2022-12-03T05:34:55.057Z,101938.82
2022-12-03T05:35:59.939Z,101937.05
2022-12-03T05:37:04.195Z,101937.05
2022-12-03T05:38:08.413Z,101935.37
2022-12-03T05:39:12.666Z,101951.19
2022-12-03T05:40:16.895Z,101941.3
2022-12-03T05:41:21.122Z,101945.27
2022-12-03T05:42:25.377Z,101943.66
2022-12-03T05:43:29.612Z,101945.42
2022-12-03T05:44:33.853Z,101937.88
2022-12-03T05:45:38.140Z,101938.28
2022-12-03T05:46:42.589Z,101934.85
2022-12-03T05:47:46.951Z,101940.12
2022-12-03T05:48:51.166Z,101933.23
2022-12-03T05:49:55.385Z,101937.59
2022-12-03T05:50:59.719Z,101933.27
2022-12-03T05:52:03.953Z,101931.87
2022-12-03T05:53:08.173Z,101937.36
2022-12-03T05:54:12.406Z,101931.73
2022-12-03T05:55:16.619Z,101938.09
2022-12-03T05:56:20.846Z,101933.7
2022-12-03T05:57:25.099Z,101938.06
2022-12-03T05:58:29.318Z,101931.33
2022-12-03T05:59:33.549Z,101930.61
2022-12-03T06:00:43.347Z,101933.84
2022-12-03T06:01:47.585Z,101934.92
2022-12-03T06:02:52.106Z,101935.55
2022-12-03T06:03:56.792Z,101937.78
2022-12-03T06:05:01.152Z,101937.64
2022-12-03T06:06:05.381Z,101938.27
2022-12-03T06:07:14.926Z,101937.2
2022-12-03T06:08:19.303Z,101945.01
2022-12-03T06:09:23.661Z,101946.7
2022-12-03T06:10:27.911Z,101941.52
2022-12-03T06:11:32.161Z,101935.17
2022-12-03T06:12:36.385Z,101940.29
2022-12-03T06:13:40.598Z,101938.59
2022-12-03T06:14:44.836Z,101934.36
2022-12-03T06:15:49.268Z,101938.59
2022-12-03T06:16:53.674Z,101931.08
2022-12-03T06:17:57.881Z,101929.94
2022-12-03T06:19:02.108Z,101931.34
2022-12-03T06:20:06.312Z,101940.94
2022-12-03T06:21:10.538Z,101935.16
2022-12-03T06:22:14.826Z,101940.11
2022-12-03T06:23:19.022Z,101937.78
2022-12-03T06:24:23.246Z,101935.72
2022-12-03T06:25:27.495Z,101944.57
2022-12-03T06:26:31.707Z,101936.86
2022-12-03T06:27:35.926Z,101933.75
2022-12-03T06:28:40.140Z,101934.95
2022-12-03T06:29:44.414Z,101931.28
2022-12-03T06:30:48.809Z,101939.33
2022-12-03T06:31:53.104Z,101937.58
2022-12-03T06:32:57.334Z,101933.91
2022-12-03T06:34:01.646Z,101938.29
2022-12-03T06:35:05.876Z,101939.99
2022-12-03T06:36:10.145Z,101934.06
2022-12-03T06:37:14.379Z,101942.62
2022-12-03T06:38:18.618Z,101930.09
2022-12-03T06:39:22.858Z,101935.45
2022-12-03T06:40:27.138Z,101936.33
2022-12-03T06:41:31.378Z,101935.76
2022-12-03T06:42:35.637Z,101938
2022-12-03T06:43:39.904Z,101937.76
2022-12-03T06:44:44.128Z,101939.73
2022-12-03T06:45:49.075Z,101934.83
2022-12-03T06:46:53.421Z,101937.45
2022-12-03T06:47:57.884Z,101945.34
2022-12-03T06:49:02.117Z,101933.8
2022-12-03T06:50:06.374Z,101939
2022-12-03T06:51:10.802Z,101941.31
2022-12-03T06:52:15.047Z,101938.64
2022-12-03T06:53:19.289Z,101942.52
2022-12-03T06:54:23.531Z,101939.2
2022-12-03T06:55:28.782Z,101944.57
2022-12-03T06:56:44.812Z,101933.61
2022-12-03T06:57:49.412Z,101934.89
2022-12-03T06:58:53.667Z,101935.61
2022-12-03T06:59:57.924Z,101936.53
2022-12-03T07:01:02.166Z,101939.63
2022-12-03T07:02:06.574Z,101942.43
2022-12-03T07:03:11.175Z,101933.4
2022-12-03T07:04:15.501Z,101932.51
2022-12-03T07:05:19.723Z,101930.36
2022-12-03T07:06:23.965Z,101935.72
2022-12-03T07:07:28.340Z,101936.17
2022-12-03T07:08:32.656Z,101930.45
2022-12-03T07:09:37.128Z,101934.95
2022-12-03T07:10:41.490Z,101936.53
2022-12-03T07:11:45.721Z,101940.91
2022-12-03T07:12:52.473Z,101939.69
2022-12-03T07:14:04.896Z,101938.86
2022-12-03T07:15:09.676Z,101939.33
2022-12-03T07:16:14.009Z,101942.02
2022-12-03T07:17:18.297Z,101935.72
2022-12-03T07:18:23.570Z,101938.41
2022-12-03T07:19:33.450Z,101936.65
2022-12-03T07:20:37.707Z,101932.98
2022-12-03T07:21:42.010Z,101936.53
2022-12-03T07:22:46.247Z,101929.62
2022-12-03T07:23:50.512Z,101929.34
2022-12-03T07:24:55.438Z,101932.69
2022-12-03T07:26:00.007Z,101929.62
2022-12-03T07:27:04.257Z,101934.06
2022-12-03T07:28:08.456Z,101926.44
2022-12-03T07:29:12.667Z,101925.47
2022-12-03T07:30:16.899Z,101926.62
2022-12-03T07:31:21.297Z,101924.19
2022-12-03T07:32:25.717Z,101918.91
2022-12-03T07:33:29.959Z,101923.88
2022-12-03T07:34:34.177Z,101929.12
2022-12-03T07:35:38.391Z,101927.34
2022-12-03T07:36:42.644Z,101928.56
2022-12-03T07:37:46.919Z,101918.37
2022-12-03T07:38:51.160Z,101926.21
2022-12-03T07:39:57.620Z,101926.78
2022-12-03T07:41:01.853Z,101923.88
2022-12-03T07:42:06.169Z,101927.78
2022-12-03T07:43:10.408Z,101923.05
2022-12-03T07:44:15.890Z,101929.67
2022-12-03T07:45:20.130Z,101929.89
2022-12-03T07:46:24.505Z,101927.3
2022-12-03T07:47:28.907Z,101929.33
2022-12-03T07:48:33.129Z,101928.05
2022-12-03T07:49:37.390Z,101930.32
2022-12-03T07:50:41.623Z,101928.61
2022-12-03T07:51:45.837Z,101925.98
2022-12-03T07:52:50.083Z,101922.05
2022-12-03T07:53:54.304Z,101923.8
2022-12-03T07:54:58.509Z,101919.27
2022-12-03T07:56:02.745Z,101925.02
2022-12-03T07:57:06.995Z,101916.3
2022-12-03T07:58:11.230Z,101921.73
2022-12-03T07:59:15.451Z,101923.23
2022-12-03T08:00:19.677Z,101918.2
2022-12-03T08:01:24.189Z,101922.74
2022-12-03T08:02:28.910Z,101918.42
2022-12-03T08:03:33.668Z,101913.14
2022-12-03T08:04:38.336Z,101916.97
2022-12-03T08:05:42.581Z,101913.7
2022-12-03T08:06:46.919Z,101912.36
2022-12-03T08:07:51.348Z,101911.02
2022-12-03T08:08:55.702Z,101919.38
2022-12-03T08:09:59.935Z,101913.3
2022-12-03T08:11:04.189Z,101913
2022-12-03T08:12:08.425Z,101919.98
2022-12-03T08:13:12.637Z,101917.23
2022-12-03T08:14:16.895Z,101916.88
2022-12-03T08:15:21.124Z,101925.36
2022-12-03T08:16:25.753Z,101920.44
2022-12-03T08:17:30.388Z,101919.86
2022-12-03T08:18:34.607Z,101923.81
2022-12-03T08:19:38.878Z,101921.61
2022-12-03T08:20:43.125Z,101919.84
2022-12-03T08:21:47.411Z,101917.52
2022-12-03T08:22:51.641Z,101925.57
2022-12-03T08:23:55.866Z,101919.91
2022-12-03T08:25:00.097Z,101916.59
2022-12-03T08:26:04.313Z,101919.55
2022-12-03T08:27:08.517Z,101929.05
2022-12-03T08:28:12.842Z,101920.34
2022-12-03T08:29:17.074Z,101926.83
2022-12-03T08:30:21.270Z,101930.72
2022-12-03T08:31:33.595Z,101913.12
2022-12-03T08:32:38.248Z,101919.55
2022-12-03T08:33:42.452Z,101925.72
2022-12-03T08:34:46.661Z,101924.03
2022-12-03T08:35:50.878Z,101924.73
2022-12-03T08:36:55.138Z,101921.33
2022-12-03T08:37:59.385Z,101922.31
2022-12-03T08:39:03.614Z,101926.51
2022-12-03T08:40:07.877Z,101919.19
2022-12-03T08:41:12.135Z,101920.26
2022-12-03T08:42:16.385Z,101926.63
2022-12-03T08:43:20.653Z,101925.84
2022-12-03T08:44:24.861Z,101923.52
2022-12-03T08:45:29.537Z,101920.56
2022-12-03T08:46:33.949Z,101926.14
2022-12-03T08:47:38.174Z,101920.25
2022-12-03T08:48:49.851Z,101918.55
2022-12-03T08:49:54.090Z,101916.8
2022-12-03T08:50:58.370Z,101915.17
2022-12-03T08:52:02.575Z,101912.69
2022-12-03T08:53:06.782Z,101913.6
2022-12-03T08:54:11.020Z,101915.41
2022-12-03T08:55:15.351Z,101915.2
2022-12-03T08:56:19.643Z,101904.94
2022-12-03T08:57:23.881Z,101920.22
2022-12-03T08:58:28.166Z,101911.59
2022-12-03T08:59:32.410Z,101917.89
2022-12-03T09:00:36.626Z,101913.09
2022-12-03T09:01:41.094Z,101917.47
2022-12-03T09:02:45.547Z,101910.45
2022-12-03T09:03:49.847Z,101914.22
2022-12-03T09:04:54.953Z,101908.5
2022-12-03T09:05:59.712Z,101914.42
2022-12-03T09:07:03.996Z,101908.4
2022-12-03T09:08:08.390Z,101903.53
2022-12-03T09:09:12.739Z,101912.64
2022-12-03T09:10:16.980Z,101909.73
2022-12-03T09:11:21.207Z,101904.23
2022-12-03T09:12:25.459Z,101903.39
2022-12-03T09:13:29.767Z,101911.09
2022-12-03T09:14:33.995Z,101905.22
2022-12-03T09:15:38.213Z,101905.43
2022-12-03T09:16:42.570Z,101904.38
2022-12-03T09:17:46.933Z,101902.17
2022-12-03T09:18:51.217Z,101898.42
2022-12-03T09:19:55.492Z,101898.42
2022-12-03T09:20:59.733Z,101897.71
2022-12-03T09:22:03.958Z,101899.69
2022-12-03T09:23:08.189Z,101900.91
2022-12-03T09:24:12.450Z,101892.34
2022-12-03T09:25:16.724Z,101896.94
2022-12-03T09:26:20.945Z,101896.58
2022-12-03T09:27:25.200Z,101895.3
2022-12-03T09:28:29.446Z,101898.14
2022-12-03T09:29:33.655Z,101896.09
2022-12-03T09:30:37.886Z,101900.17
2022-12-03T09:31:42.334Z,101896.59
2022-12-03T09:32:46.699Z,101890.3
2022-12-03T09:33:50.930Z,101895.79
2022-12-03T09:34:55.765Z,101886.91
2022-12-03T09:36:00.507Z,101884.58
2022-12-03T09:37:04.710Z,101885.5
2022-12-03T09:38:08.926Z,101893.97
2022-12-03T09:39:13.164Z,101886.75
2022-12-03T09:40:17.378Z,101889.79
2022-12-03T09:41:21.585Z,101885.77
2022-12-03T09:42:26.012Z,101880.55
2022-12-03T09:44:04.626Z,101886.89
2022-12-03T09:45:12.903Z,101882.52
2022-12-03T09:46:17.312Z,101875.47
2022-12-03T09:47:21.827Z,101872.37
2022-12-03T09:48:26.039Z,101869.16
2022-12-03T09:49:30.334Z,101872.83
2022-12-03T09:50:34.548Z,101874.17
2022-12-03T09:51:38.761Z,101869.94
2022-12-03T09:52:43.207Z,101877.14
2022-12-03T09:53:47.438Z,101871.55
2022-12-03T09:54:51.721Z,101863.84
2022-12-03T09:55:56.341Z,101865.82
2022-12-03T09:57:01.869Z,101865.75
2022-12-03T09:58:06.117Z,101866.88
2022-12-03T09:59:10.347Z,101864.19
2022-12-03T10:00:14.575Z,101869.72
2022-12-03T10:01:19.025Z,101870.08
2022-12-03T10:02:23.415Z,101861.73
2022-12-03T10:03:31.138Z,101859.17
2022-12-03T10:04:35.485Z,101865.05
2022-12-03T10:05:48.016Z,101857.91
2022-12-03T10:06:52.377Z,101856.57
2022-12-03T10:07:56.720Z,101863.64
2022-12-03T10:09:01.043Z,101863.44
2022-12-03T10:10:05.244Z,101866.47
2022-12-03T10:11:09.474Z,101869.09
2022-12-03T10:12:13.672Z,101869.45
2022-12-03T10:13:25.957Z,101865.42
2022-12-03T10:14:30.550Z,101874.95
2022-12-03T10:15:34.835Z,101866.05
2022-12-03T10:16:39.205Z,101873.69
2022-12-03T10:17:43.757Z,101872.34
2022-12-03T10:18:48.035Z,101865.4
2022-12-03T10:19:53.090Z,101865.49
2022-12-03T10:20:57.803Z,101860.25
2022-12-03T10:22:02.064Z,101857.56
2022-12-03T10:23:06.261Z,101865.55
2022-12-03T10:24:10.484Z,101867.95
2022-12-03T10:25:14.730Z,101863.86
2022-12-03T10:26:18.952Z,101865.33
2022-12-03T10:27:23.177Z,101862.8
2022-12-03T10:28:27.405Z,101864.14
2022-12-03T10:29:35.122Z,101864.62
2022-12-03T10:30:39.570Z,101865.7
2022-12-03T10:31:43.904Z,101862.84
2022-12-03T10:32:48.118Z,101859.68
2022-12-03T10:33:52.364Z,101856.48
2022-12-03T10:34:56.933Z,101853.63
2022-12-03T10:36:01.197Z,101846.14
2022-12-03T10:37:05.459Z,101842.05
2022-12-03T10:38:09.696Z,101840.11
2022-12-03T10:39:13.944Z,101841.13
2022-12-03T10:40:18.171Z,101849.6
2022-12-03T10:41:22.497Z,101842.28
2022-12-03T10:42:26.732Z,101843.21
2022-12-03T10:43:30.968Z,101844.6
2022-12-03T10:44:35.197Z,101838.36
2022-12-03T10:45:39.430Z,101836.81
2022-12-03T10:46:43.998Z,101840.34
2022-12-03T10:47:48.522Z,101842.58
2022-12-03T10:48:52.887Z,101842.05
2022-12-03T10:49:57.109Z,101837.03
2022-12-03T10:51:01.322Z,101839.5
2022-12-03T10:52:05.536Z,101837.45
2022-12-03T10:53:09.809Z,101838.17
2022-12-03T10:54:14.038Z,101841.83
2022-12-03T10:55:18.246Z,101836.19
2022-12-03T10:56:22.467Z,101835.9
2022-12-03T10:57:26.686Z,101840.77
2022-12-03T10:58:30.919Z,101837.09
2022-12-03T10:59:35.144Z,101836.61
2022-12-03T11:00:39.386Z,101834.55
2022-12-03T11:01:43.851Z,101835.05
2022-12-03T11:02:57.097Z,101833.2
2022-12-03T11:04:01.824Z,101837.22
2022-12-03T11:05:06.274Z,101834.58
2022-12-03T11:06:10.505Z,101837.05
2022-12-03T11:07:14.726Z,101831.19
2022-12-03T11:08:19.146Z,101834.43
2022-12-03T11:09:23.522Z,101833.45
2022-12-03T11:10:27.729Z,101833.93
2022-12-03T11:11:31.943Z,101827.53
2022-12-03T11:12:36.187Z,101828.59
2022-12-03T11:13:40.416Z,101833.39
2022-12-03T11:14:44.668Z,101826.25
2022-12-03T11:15:48.972Z,101828.43
2022-12-03T11:16:53.387Z,101825.26
2022-12-03T11:18:00.114Z,101820.11
2022-12-03T11:19:04.421Z,101828.88
2022-12-03T11:20:08.667Z,101827.88
2022-12-03T11:21:12.927Z,101826.31
2022-12-03T11:22:17.172Z,101825.12
2022-12-03T11:23:21.381Z,101830.06
2022-12-03T11:24:25.613Z,101820.46
2022-12-03T11:25:29.830Z,101815.15
2022-12-03T11:26:34.034Z,101816.84
2022-12-03T11:27:38.285Z,101817.94
2022-12-03T11:28:42.519Z,101815.59
2022-12-03T11:29:46.743Z,101811.28
2022-12-03T11:30:51.191Z,101813.9
2022-12-03T11:31:55.581Z,101816.17
2022-12-03T11:32:59.836Z,101809.23
2022-12-03T11:34:04.109Z,101809.16
2022-12-03T11:35:08.325Z,101802.03
2022-12-03T11:36:12.559Z,101800.97
2022-12-03T11:37:16.758Z,101806.22
2022-12-03T11:38:21.004Z,101798.22
2022-12-03T11:39:25.214Z,101806.13
2022-12-03T11:40:31.462Z,101801.33
2022-12-03T11:41:42.748Z,101792.4
2022-12-03T11:42:46.984Z,101802.55
2022-12-03T11:43:51.204Z,101795.12
2022-12-03T11:44:55.418Z,101792.5
2022-12-03T11:46:05.161Z,101795.31
2022-12-03T11:47:09.504Z,101794.77
2022-12-03T11:48:13.735Z,101790.89
2022-12-03T11:49:18.013Z,101796.11
2022-12-03T11:50:22.258Z,101796.97
2022-12-03T11:51:26.506Z,101793.16
2022-12-03T11:52:31.797Z,101796.2
2022-12-03T11:53:36.026Z,101801.34
2022-12-03T11:54:40.263Z,101782.53
2022-12-03T11:55:44.487Z,101800.29
2022-12-03T11:56:48.710Z,101793.86
2022-12-03T11:57:52.939Z,101792.16
2022-12-03T11:58:57.187Z,101790.2
2022-12-03T12:00:01.446Z,101790.27
2022-12-03T12:01:05.838Z,101796.34
2022-12-03T12:02:10.061Z,101795.22
2022-12-03T12:03:14.547Z,101786.74
2022-12-03T12:04:19.282Z,101795.41
2022-12-03T12:05:23.663Z,101791.86
2022-12-03T12:06:27.879Z,101796.45
2022-12-03T12:07:32.198Z,101794.77
2022-12-03T12:08:36.504Z,101799.42
2022-12-03T12:09:40.724Z,101795.05
2022-12-03T12:10:44.921Z,101795.11
2022-12-03T12:11:49.149Z,101794.27
2022-12-03T12:12:56.088Z,101804.66
2022-12-03T12:14:00.305Z,101808.47
2022-12-03T12:15:04.556Z,101810.33
2022-12-03T12:16:08.967Z,101814.83
2022-12-03T12:17:13.335Z,101817.58
2022-12-03T12:18:17.569Z,101816.59
2022-12-03T12:19:21.831Z,101809.68